Terminal Aerodrome Forecast
Issued by NWS

Home | Current Version | Previous Version | Graphics & Text | Print | Product List | Glossary On
Versions: 1 2 3 4 5 6 7 8 9 10 11 12 13 14 15 16 17 18
000
FTUS43 KABR 181700
TAFATY
TAF
KATY 181723Z 1818/1918 14018G25KT P6SM SCT090
     FM181900 14022G32KT P6SM SCT200
     FM190600 17018KT P6SM BKN200
     FM191300 23010KT P6SM SCT200=

USA.gov is the U.S. government's official web portal to all federal, state and local government web resources and services.